createdAt,value
2023-11-15T00:01:08.049Z,10.45
2023-11-15T00:04:11.533Z,10.43
2023-11-15T00:07:16.582Z,10.44
2023-11-15T00:10:20.169Z,10.48
2023-11-15T00:13:42.264Z,10.41
2023-11-15T00:16:45.984Z,10.38
2023-11-15T00:20:11.319Z,10.38
2023-11-15T00:23:16.224Z,10.37
2023-11-15T00:26:20.936Z,10.37
2023-11-15T00:29:48.922Z,10.30
2023-11-15T00:32:52.741Z,10.31
2023-11-15T00:35:57.236Z,10.37
2023-11-15T00:39:02.371Z,10.32
2023-11-15T00:42:26.229Z,10.38
2023-11-15T00:45:30.160Z,10.37
2023-11-15T00:48:33.805Z,10.34
2023-11-15T00:51:57.762Z,10.31
2023-11-15T00:55:02.621Z,10.32
2023-11-15T00:58:10.200Z,10.31
2023-11-15T01:01:14.024Z,10.22
2023-11-15T01:04:17.693Z,10.25
2023-11-15T01:07:21.336Z,10.19
2023-11-15T01:10:26.639Z,10.13
2023-11-15T01:13:30.239Z,10.20
2023-11-15T01:16:33.814Z,10.20
2023-11-15T01:19:37.600Z,10.22
2023-11-15T01:22:42.716Z,10.12
2023-11-15T01:25:47.897Z,10.16
2023-11-15T01:28:52.323Z,10.14
2023-11-15T01:31:56.954Z,10.04
2023-11-15T01:35:00.487Z,10.05
2023-11-15T01:38:04.212Z,10.03
2023-11-15T01:41:09.326Z,10.05
2023-11-15T01:44:31.092Z,10.04
2023-11-15T01:47:35.073Z,10.06
2023-11-15T01:50:57.741Z,10.04
2023-11-15T01:54:21.208Z,10.03
2023-11-15T01:57:26.113Z,10.03
2023-11-15T02:00:47.879Z,10.05
2023-11-15T02:03:51.575Z,10.00
2023-11-15T02:06:55.342Z,10.04
2023-11-15T02:09:58.873Z,10.02
2023-11-15T02:13:03.885Z,10.04
2023-11-15T02:16:08.360Z,10.03
2023-11-15T02:19:30.421Z,10.06
2023-11-15T02:22:53.460Z,10.08
2023-11-15T02:25:59.305Z,10.10
2023-11-15T02:29:02.763Z,10.10
2023-11-15T02:32:06.436Z,10.15
2023-11-15T02:35:10.976Z,10.12
2023-11-15T02:38:14.537Z,10.12
2023-11-15T02:41:19.573Z,10.10
2023-11-15T02:44:23.149Z,10.21
2023-11-15T02:47:27.566Z,10.04
2023-11-15T02:50:32.217Z,10.17
2023-11-15T02:53:35.853Z,10.21
2023-11-15T02:56:40.719Z,10.18
2023-11-15T02:59:44.465Z,10.21
2023-11-15T03:02:48.542Z,10.20
2023-11-15T03:05:52.325Z,10.23
2023-11-15T03:08:56.084Z,10.16
2023-11-15T03:12:01.062Z,10.17
2023-11-15T03:15:06.432Z,10.21
2023-11-15T03:18:11.092Z,10.16
2023-11-15T03:21:14.675Z,10.15
2023-11-15T03:24:18.410Z,10.19
2023-11-15T03:27:23.259Z,10.10
2023-11-15T03:30:26.859Z,10.09
2023-11-15T03:33:30.667Z,10.09
2023-11-15T03:36:53.277Z,10.04
2023-11-15T03:39:57.006Z,10.03
2023-11-15T03:43:02.261Z,10.01
2023-11-15T03:46:06.780Z,9.95
2023-11-15T03:49:10.451Z,9.92
2023-11-15T03:52:14.076Z,9.93
2023-11-15T03:55:18.204Z,9.89
2023-11-15T03:58:24.216Z,9.94
2023-11-15T04:01:27.798Z,9.90
2023-11-15T04:04:31.778Z,9.97
2023-11-15T04:07:35.381Z,9.94
2023-11-15T04:10:39.363Z,9.86
2023-11-15T04:13:44.272Z,9.80
2023-11-15T04:16:47.788Z,9.75
2023-11-15T04:19:51.354Z,9.68
2023-11-15T04:22:54.903Z,9.65
2023-11-15T04:25:59.301Z,9.51
2023-11-15T04:29:04.866Z,9.73
2023-11-15T04:34:42.764Z,9.58
2023-11-15T04:37:46.285Z,9.64
2023-11-15T04:40:49.810Z,9.67
2023-11-15T04:43:53.604Z,9.63
2023-11-15T04:46:57.171Z,9.67
2023-11-15T04:50:02.025Z,9.65
2023-11-15T04:53:08.297Z,9.61
2023-11-15T04:56:12.265Z,9.59
2023-11-15T04:59:15.829Z,9.56
2023-11-15T05:02:19.353Z,9.57
2023-11-15T05:05:24.981Z,9.51
2023-11-15T05:08:29.268Z,9.48
2023-11-15T05:11:32.946Z,9.36
2023-11-15T05:14:37.464Z,9.40
2023-11-15T05:17:41.070Z,9.41
2023-11-15T05:20:47.249Z,9.44
2023-11-15T05:23:52.739Z,9.43
2023-11-15T05:26:57.117Z,9.42
2023-11-15T05:30:00.823Z,9.34
2023-11-15T05:33:04.554Z,9.32
2023-11-15T05:36:10.938Z,9.17
2023-11-15T05:39:14.553Z,9.17
2023-11-15T05:42:18.114Z,9.17
2023-11-15T05:45:21.614Z,9.16
2023-11-15T05:48:25.371Z,9.09
2023-11-15T05:51:31.020Z,9.11
2023-11-15T05:54:34.718Z,9.04
2023-11-15T05:57:38.494Z,9.00
2023-11-15T06:00:42.884Z,9.09
2023-11-15T06:04:05.148Z,9.09
2023-11-15T06:07:12.219Z,9.02
2023-11-15T06:10:34.097Z,9.03
2023-11-15T06:13:38.788Z,8.93
2023-11-15T06:16:42.402Z,8.91
2023-11-15T06:19:49.457Z,8.85
2023-11-15T06:22:59.928Z,8.84
2023-11-15T06:26:03.440Z,8.81
2023-11-15T06:29:08.245Z,8.79
2023-11-15T06:32:11.791Z,8.79
2023-11-15T06:35:33.667Z,8.89
2023-11-15T06:38:38.605Z,8.87
2023-11-15T06:41:42.656Z,8.86
2023-11-15T06:44:46.261Z,8.83
2023-11-15T06:47:52.292Z,8.87
2023-11-15T06:50:55.973Z,8.94
2023-11-15T06:59:33.194Z,8.83
2023-11-15T07:04:06.044Z,8.82
2023-11-15T07:07:33.728Z,8.99
2023-11-15T07:10:47.952Z,9.15
2023-11-15T07:13:51.615Z,9.16
2023-11-15T07:16:56.812Z,9.19
2023-11-15T07:20:22.251Z,9.25
2023-11-15T07:24:11.429Z,9.22
2023-11-15T07:27:37.628Z,9.27
2023-11-15T07:30:43.262Z,9.24
2023-11-15T07:34:06.959Z,9.20
2023-11-15T07:37:10.904Z,9.18
2023-11-15T07:40:14.692Z,9.15
2023-11-15T07:43:19.474Z,9.26
2023-11-15T07:46:25.558Z,9.36
2023-11-15T07:49:32.309Z,9.57
2023-11-15T07:52:36.009Z,9.58
2023-11-15T07:55:39.528Z,9.62
2023-11-15T07:58:45.901Z,9.63
2023-11-15T08:01:49.837Z,9.67
2023-11-15T08:04:53.469Z,9.68
2023-11-15T08:07:58.683Z,9.70
2023-11-15T08:11:04.956Z,9.76
2023-11-15T08:14:11.023Z,9.82
2023-11-15T08:17:15.713Z,9.86
2023-11-15T08:20:19.438Z,9.86
2023-11-15T08:23:41.551Z,9.92
2023-11-15T08:26:51.149Z,9.91
2023-11-15T08:29:56.251Z,9.73
2023-11-15T08:32:59.920Z,9.90
2023-11-15T08:36:03.527Z,9.90
2023-11-15T08:39:26.272Z,9.91
2023-11-15T08:42:29.861Z,9.98
2023-11-15T08:45:34.746Z,10.06
2023-11-15T08:48:38.518Z,10.06
2023-11-15T08:51:42.437Z,10.10
2023-11-15T08:55:05.065Z,10.19
2023-11-15T08:58:08.642Z,10.20
2023-11-15T09:01:14.031Z,10.18
2023-11-15T09:04:18.878Z,10.28
2023-11-15T09:07:22.373Z,10.39
2023-11-15T09:10:28.145Z,10.49
2023-11-15T09:13:34.149Z,10.43
2023-11-15T09:16:39.039Z,10.45
2023-11-15T09:19:47.633Z,10.49
2023-11-15T09:22:55.153Z,10.56
2023-11-15T09:26:00.533Z,10.53
2023-11-15T09:29:22.442Z,10.66
2023-11-15T09:32:27.204Z,10.72
2023-11-15T09:35:32.650Z,10.73
2023-11-15T09:38:36.205Z,10.85
2023-11-15T09:41:39.869Z,10.71
2023-11-15T09:44:45.380Z,10.84
2023-11-15T09:47:52.247Z,10.85
2023-11-15T09:50:57.933Z,10.84
2023-11-15T09:54:13.051Z,10.85
2023-11-15T09:57:21.681Z,10.86
2023-11-15T10:00:30.492Z,10.86
2023-11-15T10:03:42.028Z,10.77
2023-11-15T10:06:46.189Z,10.88
2023-11-15T10:09:51.170Z,10.87
2023-11-15T10:12:55.855Z,10.86
2023-11-15T10:16:00.195Z,10.90
2023-11-15T10:19:23.977Z,10.85
2023-11-15T10:22:27.805Z,10.96
2023-11-15T10:25:32.943Z,11.03
2023-11-15T10:28:41.019Z,11.10
2023-11-15T10:34:52.883Z,11.05
2023-11-15T10:38:02.134Z,11.10
2023-11-15T10:41:09.544Z,11.05
2023-11-15T10:44:16.223Z,11.16
2023-11-15T10:47:25.031Z,11.26
2023-11-15T10:50:35.357Z,11.36
2023-11-15T10:53:40.856Z,11.43
2023-11-15T10:56:52.734Z,11.38
2023-11-15T11:00:07.963Z,11.29
2023-11-15T11:03:13.244Z,11.34
2023-11-15T11:06:27.099Z,11.37
2023-11-15T11:09:38.251Z,11.50
2023-11-15T11:12:43.810Z,11.35
2023-11-15T11:15:49.206Z,11.36
2023-11-15T11:19:12.876Z,11.34
2023-11-15T11:22:19.348Z,11.37
2023-11-15T11:25:26.849Z,11.32
2023-11-15T11:29:00.978Z,11.31
2023-11-15T11:32:21.224Z,11.49
2023-11-15T11:35:38.846Z,11.39
2023-11-15T11:38:45.681Z,11.51
2023-11-15T11:41:52.570Z,11.57
2023-11-15T11:44:57.802Z,11.57
2023-11-15T11:48:03.888Z,11.58
2023-11-15T11:51:09.571Z,11.58
2023-11-15T11:54:25.525Z,11.53
2023-11-15T11:57:34.813Z,11.63
2023-11-15T12:00:39.234Z,11.61
2023-11-15T12:03:49.292Z,11.56
2023-11-15T12:06:55.772Z,11.55
2023-11-15T12:10:07.025Z,11.50
2023-11-15T12:13:12.775Z,11.59
2023-11-15T12:16:20.569Z,11.59
2023-11-15T12:19:27.919Z,11.50
2023-11-15T12:22:32.622Z,11.44
2023-11-15T12:25:48.467Z,11.43
2023-11-15T12:28:52.953Z,11.48
2023-11-15T12:32:00.595Z,11.61
2023-11-15T12:35:08.287Z,11.52
2023-11-15T12:38:14.643Z,11.41
2023-11-15T12:41:20.714Z,11.04
2023-11-15T12:44:25.248Z,10.54
2023-11-15T12:47:30.435Z,10.26
2023-11-15T12:50:36.002Z,10.10
2023-11-15T12:53:43.191Z,9.91
2023-11-15T12:57:06.765Z,9.84
2023-11-15T13:00:30.489Z,9.80
2023-11-15T13:03:36.963Z,9.71
2023-11-15T13:06:43.663Z,9.71
2023-11-15T13:09:49.646Z,9.78
2023-11-15T13:12:58.574Z,9.89
2023-11-15T13:16:04.465Z,9.84
2023-11-15T13:19:10.995Z,9.88
2023-11-15T13:22:16.675Z,9.98
2023-11-15T13:25:22.500Z,10.08
2023-11-15T13:28:30.608Z,10.05
2023-11-15T13:31:35.730Z,10.09
2023-11-15T13:34:40.523Z,10.00
2023-11-15T13:37:45.013Z,9.94
2023-11-15T13:40:49.999Z,9.86
2023-11-15T13:43:59.206Z,9.84
2023-11-15T13:47:06.305Z,9.84
2023-11-15T13:50:12.573Z,9.86
2023-11-15T13:53:17.298Z,9.55
2023-11-15T13:56:22.408Z,9.57
2023-11-15T13:59:33.060Z,9.59
2023-11-15T14:02:37.609Z,9.62
2023-11-15T14:05:44.469Z,9.53
2023-11-15T14:08:56.076Z,9.59
2023-11-15T14:12:06.169Z,9.61
2023-11-15T14:15:13.536Z,9.61
2023-11-15T14:18:18.136Z,9.58
2023-11-15T14:21:22.727Z,9.58
2023-11-15T14:24:26.934Z,9.47
2023-11-15T14:27:31.596Z,9.49
2023-11-15T14:30:37.563Z,9.40
2023-11-15T14:33:42.123Z,9.31
2023-11-15T14:36:47.604Z,9.32
2023-11-15T14:39:52.222Z,9.27
2023-11-15T14:42:57.924Z,9.22
2023-11-15T14:46:04.424Z,9.24
2023-11-15T14:49:09.184Z,9.23
2023-11-15T14:52:14.683Z,9.24
2023-11-15T14:55:20.204Z,9.30
2023-11-15T14:58:26.637Z,9.39
2023-11-15T15:01:32.327Z,9.41
2023-11-15T15:04:38.676Z,9.44
2023-11-15T15:07:45.621Z,9.43
2023-11-15T15:10:54.561Z,9.44
2023-11-15T15:13:59.161Z,9.44
2023-11-15T15:17:07.194Z,9.07
2023-11-15T15:20:17.929Z,9.38
2023-11-15T15:23:22.500Z,9.38
2023-11-15T15:26:26.504Z,9.37
2023-11-15T15:29:31.068Z,9.42
2023-11-15T15:32:36.238Z,9.32
2023-11-15T15:35:40.344Z,9.39
2023-11-15T15:38:44.164Z,9.33
2023-11-15T15:41:50.709Z,9.33
2023-11-15T15:44:54.934Z,9.28
2023-11-15T15:48:00.670Z,9.17
2023-11-15T15:51:05.396Z,9.16
2023-11-15T15:54:09.406Z,9.05
2023-11-15T15:57:13.444Z,9.11
2023-11-15T16:00:18.813Z,8.81
2023-11-15T16:03:24.650Z,8.94
2023-11-15T16:06:28.858Z,8.91
2023-11-15T16:09:32.781Z,8.81
2023-11-15T16:12:37.687Z,8.77
2023-11-15T16:15:42.058Z,8.73
2023-11-15T16:18:47.693Z,8.68
2023-11-15T16:21:51.199Z,8.78
2023-11-15T16:24:55.935Z,8.82
2023-11-15T16:28:00.222Z,8.77
2023-11-15T16:34:42.473Z,8.64
2023-11-15T16:37:48.579Z,8.74
2023-11-15T16:40:53.619Z,8.82
2023-11-15T16:44:06.375Z,8.82
2023-11-15T16:47:09.907Z,8.84
2023-11-15T16:50:15.122Z,8.83
2023-11-15T16:53:18.833Z,8.92
2023-11-15T16:56:22.453Z,8.91
2023-11-15T16:59:25.985Z,8.94
2023-11-15T17:02:32.207Z,8.98
2023-11-15T17:05:37.336Z,8.99
2023-11-15T17:08:44.056Z,9.02
2023-11-15T17:11:51.397Z,9.11
2023-11-15T17:14:59.997Z,9.17
2023-11-15T17:18:05.011Z,9.24
2023-11-15T17:21:10.742Z,9.18
2023-11-15T17:24:14.818Z,9.08
2023-11-15T17:27:18.576Z,9.08
2023-11-15T17:30:22.457Z,9.05
2023-11-15T17:33:26.129Z,9.11
2023-11-15T17:36:31.045Z,9.07
2023-11-15T17:39:34.657Z,9.13
2023-11-15T17:42:38.450Z,9.14
2023-11-15T17:45:44.410Z,9.14
2023-11-15T17:48:47.903Z,9.07
2023-11-15T17:51:54.415Z,9.08
2023-11-15T17:54:58.083Z,9.06
2023-11-15T17:58:04.775Z,9.10
2023-11-15T18:01:09.961Z,9.10
2023-11-15T18:04:16.247Z,9.16
2023-11-15T18:07:21.505Z,8.91
2023-11-15T18:10:29.565Z,8.77
2023-11-15T18:13:33.477Z,8.79
2023-11-15T18:16:37.570Z,8.82
2023-11-15T18:19:42.204Z,8.78
2023-11-15T18:22:47.593Z,8.82
2023-11-15T18:25:52.529Z,8.83
2023-11-15T18:28:57.692Z,8.85
2023-11-15T18:32:01.853Z,8.83
2023-11-15T18:35:05.844Z,8.86
2023-11-15T18:38:14.062Z,8.77
2023-11-15T18:41:17.626Z,8.74
2023-11-15T18:44:21.911Z,8.77
2023-11-15T18:47:25.558Z,8.70
2023-11-15T18:50:29.220Z,8.79
2023-11-15T18:53:34.092Z,8.75
2023-11-15T18:56:37.656Z,8.81
2023-11-15T18:59:42.500Z,8.81
2023-11-15T19:02:47.445Z,8.75
2023-11-15T19:05:57.192Z,8.86
2023-11-15T19:09:06.312Z,8.82
2023-11-15T19:12:10.336Z,8.97
2023-11-15T19:15:14.189Z,8.86
2023-11-15T19:18:17.858Z,8.94
2023-11-15T19:21:21.438Z,8.93
2023-11-15T19:24:26.840Z,8.89
2023-11-15T19:27:31.261Z,9.06
2023-11-15T19:30:35.554Z,8.87
2023-11-15T19:33:39.198Z,8.87
2023-11-15T19:36:42.792Z,8.85
2023-11-15T19:39:47.780Z,8.93
2023-11-15T19:42:51.958Z,8.93
2023-11-15T19:45:57.277Z,8.90
2023-11-15T19:49:01.634Z,8.98
2023-11-15T19:52:12.717Z,8.92
2023-11-15T19:55:19.079Z,9.00
2023-11-15T19:58:22.953Z,9.01
2023-11-15T20:01:27.622Z,8.97
2023-11-15T20:04:32.404Z,9.00
2023-11-15T20:07:36.052Z,9.01
2023-11-15T20:10:41.050Z,8.98
2023-11-15T20:13:44.570Z,8.94
2023-11-15T20:16:48.170Z,8.99
2023-11-15T20:19:52.682Z,9.01
2023-11-15T20:22:57.366Z,8.97
2023-11-15T20:26:03.700Z,8.98
2023-11-15T20:29:11.347Z,9.00
2023-11-15T20:32:15.169Z,8.98
2023-11-15T20:35:18.578Z,8.97
2023-11-15T20:38:22.061Z,8.96
2023-11-15T20:41:26.920Z,9.01
2023-11-15T20:44:30.542Z,8.94
2023-11-15T20:47:34.268Z,8.89
2023-11-15T20:50:37.849Z,8.75
2023-11-15T20:53:41.896Z,8.73
2023-11-15T20:56:51.388Z,8.51
2023-11-15T20:59:58.401Z,8.64
2023-11-15T21:03:05.764Z,8.47
2023-11-15T21:06:10.380Z,8.47
2023-11-15T21:09:16.188Z,8.36
2023-11-15T21:12:22.002Z,8.41
2023-11-15T21:15:25.552Z,8.36
2023-11-15T21:18:29.055Z,8.32
2023-11-15T21:21:34.151Z,8.29
2023-11-15T21:24:37.936Z,8.23
2023-11-15T21:27:44.505Z,8.16
2023-11-15T21:30:48.182Z,8.14
2023-11-15T21:33:51.731Z,8.06
2023-11-15T21:37:00.176Z,8.07
2023-11-15T21:40:09.500Z,8.07
2023-11-15T21:43:14.300Z,8.05
2023-11-15T21:46:17.910Z,8.00
2023-11-15T21:49:21.565Z,8.00
2023-11-15T21:52:25.332Z,8.06
2023-11-15T21:55:29.077Z,8.11
2023-11-15T21:58:34.881Z,7.98
2023-11-15T22:01:38.401Z,7.90
2023-11-15T22:04:42.234Z,7.94
2023-11-15T22:07:46.648Z,7.91
2023-11-15T22:10:50.152Z,7.76
2023-11-15T22:13:55.105Z,7.85
2023-11-15T22:16:59.422Z,7.84
2023-11-15T22:20:03.141Z,7.82
2023-11-15T22:23:08.290Z,7.76
2023-11-15T22:26:11.692Z,7.79
2023-11-15T22:29:16.758Z,7.78
2023-11-15T22:34:54.490Z,7.62
2023-11-15T22:37:58.073Z,7.66
2023-11-15T22:41:01.791Z,7.67
2023-11-15T22:44:05.384Z,7.67
2023-11-15T22:47:08.905Z,7.67
2023-11-15T22:50:14.125Z,7.70
2023-11-15T22:53:18.376Z,7.68
2023-11-15T22:56:21.889Z,7.67
2023-11-15T22:59:25.344Z,7.65
2023-11-15T23:02:29.224Z,7.62
2023-11-15T23:05:34.219Z,7.64
2023-11-15T23:08:37.704Z,7.58
2023-11-15T23:11:41.410Z,7.55
2023-11-15T23:14:44.889Z,7.59
2023-11-15T23:17:48.987Z,7.47
2023-11-15T23:20:53.844Z,7.59
2023-11-15T23:23:57.561Z,7.65
2023-11-15T23:27:01.898Z,7.58
2023-11-15T23:30:06.010Z,7.60
2023-11-15T23:33:09.742Z,7.54
2023-11-15T23:36:16.282Z,7.54
2023-11-15T23:39:24.205Z,7.55
2023-11-15T23:42:27.985Z,7.60
2023-11-15T23:45:32.723Z,7.58
2023-11-15T23:48:37.064Z,7.54
2023-11-15T23:51:42.151Z,7.38
2023-11-15T23:54:45.684Z,7.53
2023-11-15T23:57:50.093Z,7.50
